createdAt,value
2023-01-29T04:35:41.682Z,994
2023-01-29T04:40:51.556Z,1026
2023-01-29T04:46:01.445Z,1029
2023-01-29T04:51:11.343Z,1032
2023-01-29T04:56:21.228Z,1048
2023-01-29T05:01:31.623Z,1045
2023-01-29T05:11:51.397Z,1047
2023-01-29T05:17:01.279Z,1013
2023-01-29T05:22:11.672Z,1046
2023-01-29T05:27:21.564Z,1050
2023-01-29T05:32:31.442Z,1058
2023-01-29T05:37:41.332Z,1052
2023-01-29T05:42:51.222Z,1078
2023-01-29T05:48:01.596Z,1092
2023-01-29T05:53:11.490Z,1090
2023-01-29T05:58:21.371Z,1088
2023-01-29T06:03:31.264Z,1081
2023-01-29T06:08:41.666Z,1078
2023-01-29T06:13:51.541Z,1083
2023-01-29T06:19:01.445Z,1080
2023-01-29T06:24:11.315Z,1079
2023-01-29T06:29:21.224Z,1069
2023-01-29T06:34:31.101Z,1067
2023-01-29T06:39:40.996Z,1065
2023-01-29T06:44:50.886Z,1071
2023-01-29T06:50:00.770Z,1074
2023-01-29T06:55:10.642Z,1068
2023-01-29T07:00:20.534Z,1071
2023-01-29T07:05:30.426Z,1068
2023-01-29T07:10:40.314Z,1061
2023-01-29T07:15:50.203Z,1062
2023-01-29T07:21:00.083Z,1073
2023-01-29T07:26:09.982Z,1057
2023-01-29T07:31:19.862Z,1056
2023-01-29T07:36:29.756Z,1042
2023-01-29T07:41:39.636Z,1041
2023-01-29T07:46:49.661Z,1046
2023-01-29T07:51:59.762Z,1041
2023-01-29T07:57:09.859Z,1033
2023-01-29T08:02:19.882Z,1033
2023-01-29T08:07:29.768Z,1035
2023-01-29T08:12:39.654Z,1031
2023-01-29T08:17:49.552Z,1028
2023-01-29T08:22:59.445Z,1030
2023-01-29T08:28:09.326Z,1021
2023-01-29T08:33:19.217Z,1017
2023-01-29T08:38:29.600Z,1016
2023-01-29T08:48:49.368Z,1038
2023-01-29T08:53:59.388Z,1046
2023-01-29T08:59:09.489Z,1067
2023-01-29T09:04:19.583Z,1035
2023-01-29T09:09:29.615Z,1006
2023-01-29T09:14:39.511Z,872
2023-01-29T09:19:49.393Z,936
2023-01-29T09:24:59.285Z,947
2023-01-29T09:30:09.663Z,948
2023-01-29T09:35:19.549Z,935
2023-01-29T09:40:29.433Z,936
2023-01-29T09:45:39.346Z,936
2023-01-29T09:50:49.337Z,926
2023-01-29T09:55:59.443Z,950
2023-01-29T10:01:09.551Z,968
2023-01-29T10:06:19.569Z,984
2023-01-29T10:11:29.449Z,1007
2023-01-29T10:16:39.350Z,1000
2023-01-29T10:21:49.238Z,1015
2023-01-29T10:26:59.623Z,1032
2023-01-29T10:32:09.510Z,1038
2023-01-29T10:37:19.404Z,1016
2023-01-29T10:42:29.289Z,1040
2023-01-29T10:47:39.184Z,1068
2023-01-29T10:52:49.570Z,1099
2023-01-29T10:57:59.453Z,1086
2023-01-29T11:03:09.847Z,1111
2023-01-29T11:08:20.236Z,1106
2023-01-29T11:13:30.622Z,1100
2023-01-29T11:18:41.016Z,1094
2023-01-29T11:23:51.405Z,1109
2023-01-29T11:29:01.796Z,1102
2023-01-29T11:34:12.181Z,1080
2023-01-29T11:39:22.567Z,1103
2023-01-29T11:44:32.960Z,889
2023-01-29T11:49:43.340Z,996
2023-01-29T11:54:53.726Z,1041
2023-01-29T12:00:04.125Z,1073
2023-01-29T12:05:14.506Z,1100
2023-01-29T12:10:24.906Z,1107
2023-01-29T12:15:35.287Z,1095
2023-01-29T12:20:45.676Z,1089
2023-01-29T12:25:56.083Z,1104
2023-01-29T12:31:06.461Z,1116
2023-01-29T12:36:16.847Z,1106
2023-01-29T12:41:27.244Z,1103
2023-01-29T12:46:37.643Z,1127
2023-01-29T12:51:48.017Z,1126
2023-01-29T12:56:58.409Z,1162
2023-01-29T13:02:08.815Z,1142
2023-01-29T13:07:19.196Z,1174
2023-01-29T13:12:29.576Z,1165
2023-01-29T13:17:39.988Z,1164
2023-01-29T13:22:50.375Z,1135
2023-01-29T13:28:00.766Z,1128
2023-01-29T13:33:11.143Z,1138
2023-01-29T13:38:21.531Z,1114
2023-01-29T13:43:31.923Z,1138
2023-01-29T13:48:42.327Z,1148
2023-01-29T13:53:52.704Z,1169
2023-01-29T13:59:03.093Z,1161
2023-01-29T14:04:13.489Z,1153
2023-01-29T14:09:23.880Z,1143
2023-01-29T14:14:34.261Z,1150
2023-01-29T14:19:44.656Z,1148
2023-01-29T14:24:55.047Z,1140
2023-01-29T14:30:05.438Z,1125
2023-01-29T14:35:15.829Z,1121
2023-01-29T14:40:26.213Z,1117
2023-01-29T14:45:36.590Z,1110
2023-01-29T14:50:46.986Z,1101
2023-01-29T14:55:57.373Z,1091
2023-01-29T15:01:07.765Z,1083
2023-01-29T15:06:18.165Z,1070
2023-01-29T15:11:28.553Z,1055
2023-01-29T15:16:38.941Z,1051
2023-01-29T15:21:49.324Z,1039
2023-01-29T15:26:59.727Z,1026
2023-01-29T15:32:10.104Z,1030
2023-01-29T15:37:20.503Z,1043
2023-01-29T15:42:30.887Z,1054
2023-01-29T15:47:41.286Z,1056
2023-01-29T15:52:51.656Z,1060
2023-01-29T15:58:02.052Z,1069
2023-01-29T16:03:12.428Z,1075
2023-01-29T16:08:22.839Z,1084
2023-01-29T16:13:33.218Z,1079
2023-01-29T16:18:43.620Z,1099
2023-01-29T16:23:53.993Z,1114
2023-01-29T16:29:04.390Z,1107
2023-01-29T16:34:14.774Z,1123
2023-01-29T16:39:25.000Z,1132
2023-01-29T16:44:35.539Z,1131
2023-01-29T16:49:45.937Z,1136
2023-01-29T16:54:56.337Z,1166
2023-01-29T17:00:06.715Z,1167
2023-01-29T17:05:17.105Z,1158
2023-01-29T17:10:27.503Z,1132
2023-01-29T17:15:37.903Z,1132
2023-01-29T17:20:48.279Z,1130
2023-01-29T17:25:58.683Z,1124
2023-01-29T17:31:09.075Z,1122
2023-01-29T17:36:19.587Z,1132
2023-01-29T17:41:30.190Z,1135
2023-01-29T17:46:40.782Z,1123
2023-01-29T17:51:51.304Z,1120
2023-01-29T17:57:01.697Z,1115
2023-01-29T18:02:12.207Z,1176
2023-01-29T18:07:22.810Z,1209
2023-01-29T18:12:33.410Z,1191
2023-01-29T18:17:43.931Z,1188
2023-01-29T18:22:54.317Z,1215
2023-01-29T18:28:04.705Z,1225
2023-01-29T18:33:15.093Z,1213
2023-01-29T18:38:25.610Z,1204
2023-01-29T18:43:36.231Z,1210
2023-01-29T18:48:46.814Z,1198
2023-01-29T18:53:57.345Z,1199
2023-01-29T18:59:07.723Z,1240
2023-01-29T19:04:18.117Z,1251
2023-01-29T19:09:28.498Z,1263
2023-01-29T19:14:38.879Z,1268
2023-01-29T19:19:49.283Z,1275
2023-01-29T19:24:59.803Z,1274
2023-01-29T19:30:10.392Z,1271
2023-01-29T19:35:20.982Z,1280
2023-01-29T19:40:31.512Z,1344
2023-01-29T19:45:41.895Z,1317
2023-01-29T19:50:52.293Z,1301
2023-01-29T19:56:02.686Z,1288
2023-01-29T20:01:13.077Z,1283
2023-01-29T20:06:23.452Z,1277
2023-01-29T20:11:33.847Z,1266
2023-01-29T20:16:44.241Z,1245
2023-01-29T20:21:54.759Z,1229
2023-01-29T20:27:05.345Z,1226
2023-01-29T20:32:15.957Z,1225
2023-01-29T20:37:26.482Z,1213
2023-01-29T20:42:36.861Z,1218
2023-01-29T20:47:47.389Z,1203
2023-01-29T20:52:57.980Z,1209
2023-01-29T20:58:08.571Z,1207
2023-01-29T21:03:19.092Z,1199
2023-01-29T21:08:29.498Z,1202
2023-01-29T21:13:39.879Z,1207
2023-01-29T21:18:50.258Z,1203
2023-01-29T21:24:00.663Z,1213
2023-01-29T21:29:11.047Z,1209
2023-01-29T21:34:21.432Z,1214
2023-01-29T21:39:31.829Z,1217
2023-01-29T21:44:42.217Z,1207
2023-01-29T21:55:02.994Z,1206
